Terminal Aerodrome Forecast
Issued by NWS Blacksburg, VA

Home | Current Version | Previous Version | Text Only | Print | Product List | Glossary On
Versions: 1 2 3 4 5 6 7 8 9 10 11 12 13 14 15 16 17 18 19 20 21 22 23 24 25 26
000
FTUS41 KRNK 222320
TAFBLF
TAF
KBLF 222320Z 2300/2324 22007KT P6SM FEW250
     FM230200 26009KT P6SM VCSH BKN090
      TEMPO 2302/2306 4SM -SHRA OVC040
     FM230600 27009KT P6SM VCSH BKN025
     FM231300 29008KT P6SM BKN025
     FM231700 31009KT P6SM SCT040=

USA.gov is the U.S. government's official web portal to all federal, state and local government web resources and services.